Time;durP1;ratioP1;P1;durP2;ratioP2;P2;SDS_P1;SDS_P2;PMS_P1;PMS_P2;Temp;Humidity;BMP_temperature;BMP_pressure;BME280_temperature;BME280_humidity;BME280_pressure;Samples;Min_cycle;Max_cycle;Signal;HPM_P1;HPM_P2
2023/01/11 00:00:43;;;;;;;7.50;7.30;;;3.40;99.90;;;;;;6262908;22;20202;-79
2023/01/11 00:03:13;;;;;;;8.00;7.80;;;3.40;99.90;;;;;;6263001;22;20257;-79
2023/01/11 00:05:41;;;;;;;7.70;7.50;;;3.40;99.90;;;;;;6266024;22;20202;-79
2023/01/11 00:08:09;;;;;;;7.70;7.50;;;3.50;99.90;;;;;;6276307;22;20178;-79
2023/01/11 00:10:37;;;;;;;7.90;7.70;;;3.50;99.90;;;;;;6276046;22;20198;-79
2023/01/11 00:13:05;;;;;;;8.00;7.80;;;3.50;99.90;;;;;;6276977;22;20198;-79
2023/01/11 00:15:33;;;;;;;7.83;7.63;;;3.50;99.90;;;;;;6277239;22;20201;-79
2023/01/11 00:18:01;;;;;;;7.90;7.70;;;3.50;99.90;;;;;;6278100;22;20209;-79
2023/01/11 00:20:31;;;;;;;8.10;7.90;;;3.60;99.90;;;;;;6278278;22;20194;-80
2023/01/11 00:22:59;;;;;;;7.90;7.70;;;3.60;99.90;;;;;;6277545;22;20198;-76
2023/01/11 00:25:26;;;;;;;7.97;7.77;;;3.60;99.90;;;;;;6274123;22;20186;-80
2023/01/11 00:27:54;;;;;;;7.90;7.70;;;3.60;99.90;;;;;;6266338;22;20222;-78
2023/01/11 00:30:25;;;;;;;7.90;7.70;;;3.60;99.90;;;;;;6268816;22;20175;-78
2023/01/11 00:32:56;;;;;;;7.87;7.67;;;3.60;99.90;;;;;;6267593;22;20241;-78
2023/01/11 00:35:24;;;;;;;7.90;7.70;;;3.60;99.90;;;;;;6260583;22;20218;-78
2023/01/11 00:37:54;;;;;;;7.90;7.70;;;3.60;99.90;;;;;;6258807;22;20190;-78
2023/01/11 00:40:25;;;;;;;7.83;7.63;;;3.60;99.90;;;;;;6257613;22;20194;-78
2023/01/11 00:48:26;;;;;;;7.70;7.50;;;3.60;99.90;;;;;;6257609;22;20192;-79
2023/01/11 00:50:55;;;;;;;7.60;7.40;;;3.60;99.90;;;;;;6257631;22;20194;-79
2023/01/11 00:53:24;;;;;;;7.63;7.43;;;3.60;99.90;;;;;;6257020;22;20225;-79
2023/01/11 00:55:52;;;;;;;7.70;7.50;;;3.60;99.90;;;;;;6258249;22;20183;-78
2023/01/11 00:58:19;;;;;;;7.57;7.37;;;3.60;99.90;;;;;;6258341;22;20194;-79
2023/01/11 01:00:47;;;;;;;7.37;7.17;;;3.60;99.90;;;;;;6260138;22;20202;-78
2023/01/11 01:03:14;;;;;;;7.50;7.30;;;3.50;99.90;;;;;;6260235;22;20265;-78
2023/01/11 01:05:42;;;;;;;7.60;7.40;;;3.50;99.90;;;;;;6267220;22;20198;-79
2023/01/11 01:08:09;;;;;;;7.60;7.40;;;3.40;99.90;;;;;;6258503;22;20272;-78
2023/01/11 01:10:38;;;;;;;7.70;7.50;;;3.40;99.90;;;;;;6259051;22;20197;-78
2023/01/11 01:15:57;;;;;;;7.40;7.20;;;3.40;99.90;;;;;;6258554;22;20222;-78
2023/01/11 01:18:25;;;;;;;7.60;7.40;;;3.40;99.90;;;;;;6258756;22;20209;-78
2023/01/11 01:20:52;;;;;;;7.50;7.30;;;3.40;99.90;;;;;;6258610;22;20198;-78
2023/01/11 01:23:20;;;;;;;7.63;7.43;;;3.40;99.90;;;;;;6258780;22;20240;-79
2023/01/11 01:25:49;;;;;;;7.40;7.20;;;3.40;99.90;;;;;;6259214;22;20194;-79
2023/01/11 01:28:17;;;;;;;7.40;7.20;;;3.40;99.90;;;;;;6260239;22;20205;-78
2023/01/11 01:30:50;;;;;;;7.50;7.30;;;3.50;99.90;;;;;;6259612;22;20198;-78
2023/01/11 01:33:17;;;;;;;7.43;7.23;;;3.50;99.90;;;;;;6260214;22;20205;-78
2023/01/11 01:35:45;;;;;;;7.50;7.30;;;3.50;99.90;;;;;;6259088;22;20210;-79
2023/01/11 01:38:12;;;;;;;7.40;7.20;;;3.50;99.90;;;;;;6258882;22;20249;-79
2023/01/11 01:40:42;;;;;;;7.50;7.30;;;3.50;99.90;;;;;;6258984;22;20259;-79
2023/01/11 01:43:13;;;;;;;7.43;7.23;;;3.50;99.90;;;;;;6267096;22;20217;-78
2023/01/11 01:45:41;;;;;;;7.30;7.10;;;3.60;99.90;;;;;;6265050;22;20198;-78
2023/01/11 01:48:13;;;;;;;7.30;7.10;;;3.60;99.90;;;;;;6264731;22;20254;-79
2023/01/11 01:50:46;;;;;;;7.37;7.17;;;3.60;99.90;;;;;;6263320;22;20273;-78
2023/01/11 01:53:20;;;;;;;7.47;7.27;;;3.60;99.90;;;;;;6262822;22;20206;-78
2023/01/11 01:55:53;;;;;;;7.40;7.20;;;3.50;99.90;;;;;;6261376;22;20658;-78
2023/01/11 01:58:28;;;;;;;7.67;7.47;;;3.60;99.90;;;;;;6265194;22;20190;-78
2023/01/11 02:00:56;;;;;;;7.60;7.40;;;3.60;99.90;;;;;;6261312;22;20186;-78
2023/01/11 02:03:27;;;;;;;7.60;7.40;;;3.60;99.90;;;;;;6262639;22;20198;-78
2023/01/11 02:05:55;;;;;;;7.40;7.20;;;3.60;99.90;;;;;;6261528;22;20186;-78
2023/01/11 02:08:31;;;;;;;7.50;7.30;;;3.60;99.90;;;;;;6262887;22;20202;-78
2023/01/11 02:11:00;;;;;;;7.50;7.30;;;3.60;99.90;;;;;;6262760;22;20213;-78
2023/01/11 02:13:31;;;;;;;7.60;7.40;;;3.60;99.90;;;;;;6269353;22;20237;-79
2023/01/11 02:16:07;;;;;;;7.50;7.30;;;3.60;99.90;;;;;;6273984;22;20201;-78
2023/01/11 02:18:35;;;;;;;7.23;7.03;;;3.70;99.90;;;;;;6269868;22;20194;-78
2023/01/11 02:21:19;;;;;;;7.40;7.20;;;3.70;99.90;;;;;;6269712;22;20194;-78
2023/01/11 02:24:24;;;;;;;7.53;7.33;;;3.70;99.90;;;;;;6269794;22;20220;-78
2023/01/11 02:27:33;;;;;;;7.50;7.30;;;3.70;99.90;;;;;;6269024;22;20205;-79
2023/01/11 02:30:17;;;;;;;7.40;7.20;;;3.70;99.90;;;;;;6236271;22;20194;-78
2023/01/11 02:32:55;;;;;;;7.30;7.10;;;3.70;99.90;;;;;;6268383;22;20252;-79
2023/01/11 02:35:34;;;;;;;7.10;6.90;;;3.70;99.90;;;;;;6269442;22;20204;-79
2023/01/11 02:38:11;;;;;;;7.17;6.97;;;3.70;99.90;;;;;;6270359;22;20183;-79
2023/01/11 02:40:51;;;;;;;7.43;7.23;;;3.70;99.90;;;;;;6265195;22;20214;-79
2023/01/11 02:46:23;;;;;;;7.23;7.03;;;3.80;99.90;;;;;;6263648;22;20182;-79
2023/01/11 02:48:59;;;;;;;7.47;7.27;;;3.80;99.90;;;;;;6265622;22;20198;-78
2023/01/11 02:51:38;;;;;;;7.03;6.83;;;3.80;99.90;;;;;;6270887;22;20197;-78
2023/01/11 02:54:09;;;;;;;7.07;6.87;;;3.80;99.90;;;;;;6273647;22;20257;-78
2023/01/11 02:56:41;;;;;;;6.97;6.77;;;3.80;99.90;;;;;;6268246;22;20187;-79
2023/01/11 02:59:12;;;;;;;7.17;6.97;;;3.80;99.90;;;;;;6265734;22;20205;-79
2023/01/11 03:01:51;;;;;;;7.10;6.90;;;3.80;99.90;;;;;;6263554;22;20186;-79
2023/01/11 03:04:28;;;;;;;7.10;6.90;;;3.80;99.90;;;;;;6264010;22;20190;-79
2023/01/11 03:07:14;;;;;;;7.30;7.10;;;3.80;99.90;;;;;;6263119;22;20189;-78
2023/01/11 03:10:00;;;;;;;7.30;7.10;;;3.80;99.90;;;;;;6262500;22;20194;-78
2023/01/11 03:12:53;;;;;;;7.40;7.20;;;3.90;99.90;;;;;;6263085;22;20213;-79
2023/01/11 03:15:58;;;;;;;6.90;6.70;;;3.90;99.90;;;;;;6262532;22;20241;-79
2023/01/11 03:18:40;;;;;;;7.00;6.80;;;3.90;99.90;;;;;;6263614;22;20209;-78
2023/01/11 03:21:27;;;;;;;7.10;6.90;;;4.00;99.90;;;;;;6263380;22;20221;-79
2023/01/11 03:24:06;;;;;;;6.90;6.70;;;4.00;99.90;;;;;;6262471;22;20234;-78
2023/01/11 03:26:45;;;;;;;7.20;7.00;;;4.00;99.90;;;;;;6263745;22;20205;-79
2023/01/11 03:29:25;;;;;;;6.90;6.70;;;4.10;99.90;;;;;;6262817;22;20190;-79
2023/01/11 03:32:03;;;;;;;7.10;6.90;;;4.00;99.90;;;;;;6263890;22;20194;-78
2023/01/11 03:34:37;;;;;;;7.00;6.80;;;4.10;99.90;;;;;;6263318;22;20194;-79
2023/01/11 03:37:11;;;;;;;7.00;6.80;;;4.10;99.90;;;;;;6264850;22;20221;-78
2023/01/11 03:39:44;;;;;;;7.00;6.80;;;4.10;99.90;;;;;;6270345;22;20221;-78
2023/01/11 03:42:16;;;;;;;7.10;6.90;;;4.10;99.90;;;;;;6271486;22;20221;-78
2023/01/11 03:44:48;;;;;;;7.20;7.00;;;4.10;99.90;;;;;;6274574;22;20195;-78
2023/01/11 03:47:18;;;;;;;7.00;6.80;;;4.10;99.90;;;;;;6267201;22;20195;-78
2023/01/11 03:49:52;;;;;;;7.20;7.00;;;4.20;99.90;;;;;;6275801;22;20190;-78
2023/01/11 03:52:25;;;;;;;7.03;6.83;;;4.30;99.90;;;;;;6273191;22;20259;-78
2023/01/11 03:54:54;;;;;;;6.90;6.70;;;4.30;99.90;;;;;;6277263;22;20208;-78
2023/01/11 03:57:23;;;;;;;6.77;6.57;;;4.30;99.90;;;;;;6278354;22;20210;-78
2023/01/11 03:59:51;;;;;;;6.90;6.70;;;4.40;99.90;;;;;;6277570;22;20250;-77
2023/01/11 04:02:22;;;;;;;6.90;6.70;;;4.40;99.90;;;;;;6278104;22;20225;-78
2023/01/11 04:04:51;;;;;;;7.00;6.80;;;4.40;99.90;;;;;;6278920;22;20186;-78
2023/01/11 04:07:19;;;;;;;7.10;6.90;;;4.40;99.90;;;;;;6278585;22;20198;-78
2023/01/11 04:09:47;;;;;;;6.80;6.60;;;4.40;99.90;;;;;;6278561;22;20194;-77
2023/01/11 04:12:14;;;;;;;6.70;6.50;;;4.40;99.90;;;;;;6277778;22;20210;-78
2023/01/11 04:14:42;;;;;;;6.97;6.77;;;4.40;99.90;;;;;;6276684;22;20201;-77
2023/01/11 04:17:09;;;;;;;7.00;6.80;;;4.40;99.90;;;;;;6276284;22;20194;-77
2023/01/11 04:19:37;;;;;;;6.90;6.70;;;4.40;99.90;;;;;;6277470;22;20198;-78
2023/01/11 04:22:06;;;;;;;6.83;6.63;;;4.50;99.90;;;;;;6276394;22;20241;-78
2023/01/11 04:24:33;;;;;;;7.00;6.80;;;4.50;99.90;;;;;;6277300;22;20178;-78
2023/01/11 04:27:00;;;;;;;6.80;6.60;;;4.50;99.90;;;;;;6277298;22;20182;-78
2023/01/11 04:29:28;;;;;;;6.83;6.63;;;4.50;99.90;;;;;;6278476;22;20194;-78
2023/01/11 04:31:56;;;;;;;6.97;6.77;;;4.50;99.90;;;;;;6273504;22;20198;-77
2023/01/11 04:34:23;;;;;;;7.20;7.00;;;4.60;99.90;;;;;;6275766;22;20245;-78
2023/01/11 04:36:51;;;;;;;6.90;6.70;;;4.60;99.90;;;;;;6277984;22;20201;-79
2023/01/11 04:39:20;;;;;;;6.80;6.60;;;4.60;99.90;;;;;;6266735;22;20209;-78
2023/01/11 04:44:32;;;;;;;6.73;6.53;;;4.60;99.90;;;;;;6270244;22;20240;-78
2023/01/11 04:46:59;;;;;;;6.90;6.70;;;4.50;99.90;;;;;;6261055;22;20220;-78
2023/01/11 04:49:27;;;;;;;6.93;6.73;;;4.50;99.90;;;;;;6260799;22;20193;-78
2023/01/11 04:51:55;;;;;;;6.90;6.70;;;4.50;99.90;;;;;;6260856;22;20182;-79
2023/01/11 04:54:24;;;;;;;7.00;6.80;;;4.50;99.90;;;;;;6261753;22;20198;-78
2023/01/11 04:56:51;;;;;;;7.00;6.80;;;4.50;99.90;;;;;;6261732;22;20723;-78
2023/01/11 04:59:19;;;;;;;6.80;6.60;;;4.50;99.90;;;;;;6262233;22;20198;-79
2023/01/11 05:01:46;;;;;;;7.07;6.87;;;4.50;99.90;;;;;;6260776;22;20198;-78
2023/01/11 05:04:14;;;;;;;7.30;7.10;;;4.50;99.90;;;;;;6260436;22;20198;-78
2023/01/11 05:06:41;;;;;;;7.13;6.93;;;4.50;99.90;;;;;;6260517;22;20202;-78
2023/01/11 05:09:14;;;;;;;7.17;6.97;;;4.50;99.90;;;;;;6260188;22;20207;-79
2023/01/11 05:11:43;;;;;;;7.30;7.10;;;4.50;99.90;;;;;;6259963;22;20210;-78
2023/01/11 05:14:11;;;;;;;7.20;7.00;;;4.50;99.90;;;;;;6260592;22;20293;-78
2023/01/11 05:16:38;;;;;;;7.10;6.90;;;4.50;99.90;;;;;;6260712;22;20198;-78
2023/01/11 05:19:06;;;;;;;7.20;7.00;;;4.50;99.90;;;;;;6261254;22;20229;-79
2023/01/11 05:21:36;;;;;;;7.10;6.90;;;4.50;99.90;;;;;;6261277;22;20273;-78
2023/01/11 05:30:15;;;;;;;6.90;6.70;;;4.60;99.90;;;;;;6254984;22;20193;-88
2023/01/11 05:38:26;;;;;;;6.50;6.30;;;4.70;99.90;;;;;;6277570;22;20178;-87
2023/01/11 05:41:21;;;;;;;6.80;6.60;;;4.70;99.90;;;;;;6280386;22;20194;-87
2023/01/11 05:47:06;;;;;;;;;;;;;;;;;;;;;
2023/01/11 05:49:48;;;;;;;6.80;6.60;;;4.80;99.90;;;;;;6255985;22;20202;-87
2023/01/11 05:55:26;;;;;;;6.70;6.50;;;4.90;99.90;;;;;;6253400;22;20226;-87
2023/01/11 05:57:54;;;;;;;6.67;6.47;;;4.90;99.90;;;;;;6255854;22;20198;-87
2023/01/11 06:03:36;;;;;;;6.90;6.70;;;5.00;99.90;;;;;;6253717;22;20198;-87
2023/01/11 06:06:22;;;;;;;6.97;6.77;;;5.00;99.90;;;;;;6258482;22;20222;-87
2023/01/11 06:09:01;;;;;;;7.00;6.80;;;5.00;99.90;;;;;;6256632;22;20206;-87
2023/01/11 06:11:32;;;;;;;6.90;6.70;;;5.10;99.90;;;;;;6257265;22;20221;-87
2023/01/11 06:14:08;;;;;;;6.90;6.70;;;5.10;99.90;;;;;;6256991;22;20198;-87
2023/01/11 06:17:15;;;;;;;6.90;6.70;;;5.20;99.90;;;;;;6256238;22;20258;-86
2023/01/11 06:20:01;;;;;;;6.53;6.33;;;5.20;99.90;;;;;;6261761;22;20234;-87
2023/01/11 06:22:48;;;;;;;6.80;6.60;;;5.30;99.90;;;;;;6279561;22;20196;-87
2023/01/11 06:38:11;;;;;;;7.10;6.90;;;5.40;99.90;;;;;;6232088;22;20214;-86
2023/01/11 06:40:54;;;;;;;7.23;7.03;;;5.50;99.90;;;;;;6256802;22;20225;-87
2023/01/11 06:43:40;;;;;;;6.87;6.67;;;5.50;99.90;;;;;;6256139;22;20232;-87
2023/01/11 06:46:17;;;;;;;6.97;6.77;;;5.50;99.90;;;;;;6230616;22;20182;-86
2023/01/11 06:48:58;;;;;;;7.20;7.00;;;5.60;99.90;;;;;;6255833;22;20202;-87
2023/01/11 06:51:33;;;;;;;7.20;7.00;;;5.60;99.90;;;;;;6267579;22;20178;-86
2023/01/11 06:59:44;;;;;;;7.13;6.93;;;5.70;99.90;;;;;;6279421;22;20201;-87
2023/01/11 07:02:15;;;;;;;7.90;7.70;;;5.80;99.90;;;;;;6279299;22;20200;-87
2023/01/11 07:04:55;;;;;;;8.00;7.80;;;5.80;99.90;;;;;;6279847;22;20186;-87
2023/01/11 07:08:04;;;;;;;8.00;7.80;;;5.90;99.90;;;;;;6267338;22;20190;-87
2023/01/11 07:10:45;;;;;;;7.90;7.70;;;5.90;99.90;;;;;;6276714;22;20193;-87
2023/01/11 07:16:45;;;;;;;7.97;7.77;;;5.90;99.90;;;;;;6260070;22;20209;-87
2023/01/11 07:19:24;;;;;;;7.90;7.70;;;5.90;99.90;;;;;;6262017;22;20952;-87
2023/01/11 07:21:59;;;;;;;7.90;7.70;;;5.90;99.90;;;;;;6259164;22;20230;-87
2023/01/11 07:24:57;;;;;;;8.00;7.80;;;5.90;99.90;;;;;;6258662;22;20211;-87
2023/01/11 07:30:22;;;;;;;8.20;8.00;;;5.90;99.90;;;;;;6258749;22;20202;-87
2023/01/11 09:07:51;;;;;;;8.10;7.90;;;7.00;99.90;;;;;;5759838;24;20248;-84
2023/01/11 09:10:19;;;;;;;8.37;8.17;;;7.10;99.90;;;;;;5897377;23;20231;-84
2023/01/11 11:01:06;;;;;;;8.77;8.57;;;8.80;99.90;;;;;;5934783;24;20197;-88
2023/01/11 11:23:28;;;;;;;8.70;8.50;;;9.30;99.90;;;;;;6125809;22;20206;-81
2023/01/11 11:26:00;;;;;;;9.00;8.80;;;9.20;99.90;;;;;;6262192;22;20193;-81
2023/01/11 11:28:30;;;;;;;8.60;8.40;;;9.20;99.90;;;;;;6261540;22;20244;-81
2023/01/11 11:31:00;;;;;;;8.80;8.60;;;9.20;99.90;;;;;;6262280;22;20191;-81
2023/01/11 11:33:34;;;;;;;8.57;8.37;;;9.20;99.90;;;;;;6260282;22;20206;-81
2023/01/11 11:36:04;;;;;;;8.63;8.43;;;9.10;99.90;;;;;;6260046;22;20214;-83
2023/01/11 11:38:36;;;;;;;8.50;8.30;;;9.10;99.90;;;;;;6260402;22;20221;-81
2023/01/11 11:41:09;;;;;;;8.50;8.30;;;9.00;99.90;;;;;;6259985;22;20225;-83
2023/01/11 11:43:38;;;;;;;8.23;8.03;;;9.00;99.90;;;;;;6260662;22;20206;-81
2023/01/11 11:46:23;;;;;;;8.13;7.93;;;9.00;99.90;;;;;;6260959;22;20198;-82
2023/01/11 11:49:15;;;;;;;7.90;7.70;;;9.00;99.90;;;;;;6259872;22;20221;-82
2023/01/11 11:51:44;;;;;;;8.07;7.87;;;8.90;99.90;;;;;;6258784;22;20249;-81
2023/01/11 11:54:22;;;;;;;7.90;7.70;;;8.80;99.90;;;;;;6259852;22;20202;-81
2023/01/11 11:56:51;;;;;;;7.63;7.43;;;8.80;99.90;;;;;;6260531;22;20193;-81
2023/01/11 11:59:22;;;;;;;7.60;7.40;;;8.80;99.90;;;;;;6260377;22;20197;-81
2023/01/11 12:01:59;;;;;;;7.67;7.47;;;8.80;99.90;;;;;;6260427;22;20194;-81
2023/01/11 12:04:45;;;;;;;7.70;7.50;;;8.80;99.90;;;;;;6260594;22;20189;-80
2023/01/11 12:07:16;;;;;;;7.80;7.60;;;8.70;99.90;;;;;;6261270;22;20245;-81
2023/01/11 12:09:49;;;;;;;7.80;7.60;;;8.70;99.90;;;;;;6260721;22;20237;-81
2023/01/11 12:12:22;;;;;;;7.80;7.60;;;8.70;99.90;;;;;;6259271;22;20194;-81
2023/01/11 12:15:19;;;;;;;7.50;7.30;;;8.70;99.90;;;;;;6259828;22;20190;-81
2023/01/11 12:17:46;;;;;;;7.60;7.40;;;8.60;99.90;;;;;;6259734;22;20202;-82
2023/01/11 12:20:40;;;;;;;7.50;7.30;;;8.60;99.90;;;;;;6260483;22;20257;-82
2023/01/11 12:23:26;;;;;;;7.20;7.00;;;8.60;99.90;;;;;;6259703;22;20213;-81
2023/01/11 12:26:26;;;;;;;7.60;7.40;;;8.50;99.90;;;;;;6260235;22;20195;-81
2023/01/11 12:29:35;;;;;;;7.47;7.27;;;8.50;99.90;;;;;;6259644;22;20202;-81
2023/01/11 12:32:44;;;;;;;7.43;7.23;;;8.50;99.90;;;;;;6259784;22;20198;-82
2023/01/11 12:35:35;;;;;;;7.57;7.37;;;8.50;99.90;;;;;;6156488;22;20221;-81
2023/01/11 12:38:29;;;;;;;7.73;7.53;;;8.50;99.90;;;;;;6258764;22;20214;-81
2023/01/11 12:41:44;;;;;;;7.30;7.10;;;8.50;99.90;;;;;;6258267;22;20224;-82
2023/01/11 12:44:23;;;;;;;7.40;7.20;;;8.40;99.90;;;;;;6259806;22;20209;-83
2023/01/11 12:47:08;;;;;;;7.30;7.10;;;8.40;99.90;;;;;;6259460;22;20221;-81
2023/01/11 12:49:46;;;;;;;7.30;7.10;;;8.40;99.90;;;;;;6258836;22;20209;-82
2023/01/11 12:52:48;;;;;;;7.07;6.87;;;8.40;99.90;;;;;;6258009;22;20233;-82
2023/01/11 12:55:43;;;;;;;7.10;6.90;;;8.30;99.90;;;;;;6225267;22;20222;-82
2023/01/11 12:58:29;;;;;;;7.30;7.10;;;8.30;99.90;;;;;;6260532;22;20194;-81
2023/01/11 13:01:28;;;;;;;7.20;7.00;;;8.30;99.90;;;;;;6264226;22;20194;-81
2023/01/11 13:04:45;;;;;;;6.97;6.77;;;8.30;99.90;;;;;;6260747;22;20198;-82
2023/01/11 13:07:28;;;;;;;6.80;6.60;;;8.20;99.90;;;;;;6260866;22;20198;-81
2023/01/11 13:10:10;;;;;;;7.13;6.93;;;8.20;99.90;;;;;;6260576;22;20202;-81
2023/01/11 13:12:44;;;;;;;7.17;6.97;;;8.20;99.90;;;;;;6259806;22;20245;-81
2023/01/11 13:15:31;;;;;;;7.00;6.80;;;8.10;99.90;;;;;;6259633;22;20253;-78
2023/01/11 13:18:12;;;;;;;6.50;6.30;;;8.10;99.90;;;;;;6259427;22;20194;-81
2023/01/11 13:20:47;;;;;;;6.80;6.60;;;8.10;99.90;;;;;;6260848;22;20198;-82
2023/01/11 13:23:22;;;;;;;6.67;6.47;;;8.10;99.90;;;;;;6261863;22;20197;-80
2023/01/11 13:25:52;;;;;;;6.70;6.50;;;8.10;99.90;;;;;;6260470;22;20196;-79
2023/01/11 13:28:29;;;;;;;6.80;6.60;;;8.10;99.90;;;;;;6261622;22;20194;-79
2023/01/11 13:31:00;;;;;;;6.80;6.60;;;8.00;99.90;;;;;;6259443;22;20197;-80
2023/01/11 13:33:30;;;;;;;6.53;6.33;;;8.10;99.90;;;;;;6262435;22;20206;-79
2023/01/11 13:36:05;;;;;;;6.53;6.33;;;8.00;99.90;;;;;;6263443;22;20281;-78
2023/01/11 13:38:41;;;;;;;6.80;6.60;;;8.00;99.90;;;;;;6263307;22;20264;-81
2023/01/11 13:41:17;;;;;;;6.33;6.13;;;8.00;99.90;;;;;;6264656;22;20194;-80
2023/01/11 13:43:51;;;;;;;6.53;6.33;;;8.00;99.90;;;;;;6265013;22;20362;-80
2023/01/11 13:46:53;;;;;;;6.87;6.67;;;8.00;99.90;;;;;;6263804;22;20218;-81
2023/01/11 13:49:45;;;;;;;6.47;6.27;;;8.00;99.90;;;;;;6253785;22;20288;-81
2023/01/11 13:52:15;;;;;;;6.60;6.40;;;8.10;99.90;;;;;;6259694;22;20190;-81
2023/01/11 13:54:53;;;;;;;6.10;6.00;;;8.10;99.90;;;;;;6266122;22;20253;-81
2023/01/11 13:57:33;;;;;;;6.60;6.40;;;8.10;99.90;;;;;;6262547;22;20194;-81
2023/01/11 14:00:10;;;;;;;6.63;6.43;;;8.10;99.90;;;;;;6263424;22;20695;-82
2023/01/11 14:02:46;;;;;;;6.50;6.30;;;8.10;99.90;;;;;;6262783;22;20284;-80
2023/01/11 14:05:17;;;;;;;6.40;6.20;;;8.10;99.90;;;;;;6263427;22;20259;-80
2023/01/11 14:08:09;;;;;;;6.50;6.30;;;8.20;99.90;;;;;;6264573;22;20221;-79
2023/01/11 14:10:49;;;;;;;6.53;6.33;;;8.20;99.90;;;;;;6265092;22;20252;-79
2023/01/11 14:14:16;;;;;;;6.50;6.30;;;8.20;99.90;;;;;;6263206;22;20186;-80
2023/01/11 14:17:25;;;;;;;6.20;6.10;;;8.30;99.90;;;;;;6267261;22;20213;-81
2023/01/11 14:20:05;;;;;;;6.20;6.10;;;8.30;99.90;;;;;;6217638;22;20194;-80
2023/01/11 14:22:41;;;;;;;6.13;6.03;;;8.40;99.90;;;;;;6263406;22;20201;-80
2023/01/11 14:25:18;;;;;;;6.17;6.07;;;8.40;99.90;;;;;;6261018;22;20253;-82
2023/01/11 14:28:14;;;;;;;6.50;6.30;;;8.40;99.90;;;;;;6261698;22;20217;-81
2023/01/11 14:31:14;;;;;;;6.20;6.10;;;8.40;99.90;;;;;;6261382;22;20210;-81
2023/01/11 14:34:13;;;;;;;6.43;6.23;;;8.40;99.90;;;;;;6248073;22;20210;-80
2023/01/11 14:37:25;;;;;;;6.13;6.03;;;8.50;99.90;;;;;;6261588;22;20195;-82
2023/01/11 14:40:24;;;;;;;6.23;6.10;;;8.50;99.90;;;;;;6256072;22;20291;-82
2023/01/11 14:43:24;;;;;;;6.20;6.10;;;8.50;99.90;;;;;;6250275;22;20194;-81
2023/01/11 14:46:19;;;;;;;6.20;6.10;;;8.40;99.90;;;;;;6259281;22;20198;-81
2023/01/11 14:49:00;;;;;;;6.40;6.20;;;8.40;99.90;;;;;;6261170;22;20202;-80
2023/01/11 14:51:32;;;;;;;6.40;6.20;;;8.50;99.90;;;;;;6261273;22;20209;-81
2023/01/11 14:54:07;;;;;;;6.10;6.00;;;8.50;99.90;;;;;;6263494;22;20314;-80
2023/01/11 14:56:49;;;;;;;6.17;6.07;;;8.50;99.90;;;;;;6272853;22;20193;-80
2023/01/11 14:59:36;;;;;;;6.63;6.43;;;8.60;99.90;;;;;;6279954;22;20258;-80
2023/01/11 15:02:36;;;;;;;6.50;6.30;;;8.60;99.90;;;;;;6278551;22;20186;-80
2023/01/11 15:05:34;;;;;;;6.93;6.73;;;8.70;99.90;;;;;;6187991;23;20244;-79
2023/01/11 15:08:22;;;;;;;6.67;6.47;;;8.70;99.90;;;;;;6188226;23;20253;-79
2023/01/11 15:10:58;;;;;;;6.60;6.40;;;8.70;99.90;;;;;;6262894;22;20205;-80
2023/01/11 15:13:30;;;;;;;6.60;6.40;;;8.80;99.90;;;;;;6281807;22;20198;-80
2023/01/11 15:18:56;;;;;;;6.70;6.50;;;8.80;99.90;;;;;;6282606;22;20171;-80
2023/01/11 15:21:55;;;;;;;6.80;6.60;;;8.80;99.90;;;;;;6280265;22;20201;-83
2023/01/11 15:24:28;;;;;;;6.83;6.63;;;8.80;99.90;;;;;;6281005;22;20228;-80
2023/01/11 15:26:59;;;;;;;7.00;6.80;;;8.80;99.90;;;;;;6281710;22;20244;-79
2023/01/11 15:29:30;;;;;;;6.93;6.73;;;8.90;99.90;;;;;;6281940;22;20181;-78
2023/01/11 15:32:18;;;;;;;6.87;6.67;;;8.90;99.90;;;;;;6281293;22;20186;-79
2023/01/11 15:34:48;;;;;;;6.47;6.27;;;8.90;99.90;;;;;;6281346;22;20194;-79
2023/01/11 15:37:44;;;;;;;6.30;6.13;;;8.90;99.90;;;;;;6281458;22;20178;-79
2023/01/11 15:40:21;;;;;;;6.57;6.37;;;8.90;99.90;;;;;;6273117;22;20264;-78
2023/01/11 15:43:44;;;;;;;6.50;6.30;;;8.90;99.90;;;;;;6265678;22;20190;-81
2023/01/11 15:47:09;;;;;;;6.83;6.63;;;8.90;99.90;;;;;;6268835;22;20198;-82
2023/01/11 15:50:13;;;;;;;6.97;6.77;;;8.90;99.90;;;;;;6257429;22;20273;-82
2023/01/11 15:53:36;;;;;;;7.10;6.90;;;8.90;99.90;;;;;;6261585;22;20190;-81
2023/01/11 15:56:49;;;;;;;6.50;6.30;;;8.90;99.90;;;;;;6260267;22;20194;-83
2023/01/11 15:59:53;;;;;;;6.60;6.40;;;8.90;99.90;;;;;;6261256;22;20206;-83
2023/01/11 16:03:04;;;;;;;6.70;6.50;;;8.90;99.90;;;;;;6259773;22;20244;-82
2023/01/11 16:05:36;;;;;;;6.90;6.70;;;8.90;99.90;;;;;;6260579;22;20347;-83
2023/01/11 16:08:20;;;;;;;6.77;6.57;;;9.00;99.90;;;;;;6261082;22;20256;-81
2023/01/11 16:11:08;;;;;;;6.90;6.70;;;9.00;99.90;;;;;;6260352;22;20296;-80
2023/01/11 16:13:53;;;;;;;6.40;6.20;;;9.00;99.90;;;;;;6261620;22;20202;-82
2023/01/11 16:16:27;;;;;;;6.80;6.60;;;9.00;99.90;;;;;;6261265;22;20194;-80
2023/01/11 16:18:58;;;;;;;6.60;6.40;;;9.00;99.90;;;;;;6260339;22;20198;-82
2023/01/11 16:21:33;;;;;;;6.70;6.50;;;9.10;99.90;;;;;;6260769;22;20225;-81
2023/01/11 16:24:02;;;;;;;7.00;6.80;;;9.10;99.90;;;;;;6261101;22;20206;-81
2023/01/11 16:26:31;;;;;;;6.90;6.70;;;9.10;99.90;;;;;;6260512;22;20194;-84
2023/01/11 16:28:59;;;;;;;6.80;6.60;;;9.10;99.90;;;;;;6260665;22;20217;-84
2023/01/11 16:31:53;;;;;;;7.10;6.90;;;9.10;99.90;;;;;;6260236;22;20277;-80
2023/01/11 16:34:21;;;;;;;7.10;6.90;;;9.10;99.90;;;;;;6260464;22;20218;-81
2023/01/11 16:36:49;;;;;;;7.00;6.80;;;9.10;99.90;;;;;;6262284;22;20190;-82
2023/01/11 16:39:21;;;;;;;7.00;6.80;;;9.10;99.90;;;;;;6261673;22;20202;-81
2023/01/11 16:41:55;;;;;;;6.83;6.63;;;9.00;99.90;;;;;;6260630;22;20194;-81
2023/01/11 16:44:33;;;;;;;6.80;6.60;;;9.00;99.90;;;;;;6261335;22;20241;-81
2023/01/11 16:47:15;;;;;;;7.10;6.90;;;9.00;99.90;;;;;;6261791;22;20194;-82
2023/01/11 16:49:51;;;;;;;6.83;6.63;;;8.90;99.90;;;;;;6263599;22;20198;-84
2023/01/11 16:52:46;;;;;;;7.10;6.90;;;8.90;99.90;;;;;;6264769;22;20206;-81
2023/01/11 16:55:20;;;;;;;7.00;6.80;;;8.90;99.90;;;;;;6259559;22;20201;-80
2023/01/11 16:57:53;;;;;;;7.20;7.00;;;8.90;99.90;;;;;;6261380;22;20202;-81
2023/01/11 17:00:31;;;;;;;7.00;6.80;;;8.90;99.90;;;;;;6260671;22;20209;-81
2023/01/11 17:03:25;;;;;;;7.10;6.90;;;8.80;99.90;;;;;;6261389;22;20205;-82
2023/01/11 17:06:19;;;;;;;7.13;6.93;;;8.80;99.90;;;;;;6262667;22;21098;-82
2023/01/11 17:08:50;;;;;;;7.03;6.83;;;8.80;99.90;;;;;;6252192;22;20296;-80
2023/01/11 17:11:32;;;;;;;7.00;6.80;;;8.80;99.90;;;;;;6259970;22;20198;-81
2023/01/11 17:14:47;;;;;;;7.10;6.90;;;8.80;99.90;;;;;;6260412;22;20194;-80
2023/01/11 17:17:14;;;;;;;6.90;6.70;;;8.80;99.90;;;;;;6261604;22;20221;-81
2023/01/11 17:19:48;;;;;;;7.27;7.07;;;8.70;99.90;;;;;;6261758;22;20277;-79
2023/01/11 17:22:23;;;;;;;7.10;6.90;;;8.70;99.90;;;;;;6267371;22;20254;-80
2023/01/11 17:24:55;;;;;;;7.07;6.87;;;8.70;99.90;;;;;;6268470;22;20210;-80
2023/01/11 17:27:27;;;;;;;7.27;7.07;;;8.70;99.90;;;;;;6257853;22;20265;-79
2023/01/11 17:29:57;;;;;;;7.30;7.10;;;8.60;99.90;;;;;;6258125;22;20218;-81
2023/01/11 17:32:37;;;;;;;7.30;7.10;;;8.60;99.90;;;;;;6263427;22;20221;-83
2023/01/11 17:35:15;;;;;;;7.40;7.20;;;8.60;99.90;;;;;;6261025;22;20205;-81
2023/01/11 17:37:44;;;;;;;7.20;7.00;;;8.60;99.90;;;;;;6258175;22;20190;-80
2023/01/11 17:40:23;;;;;;;7.30;7.10;;;8.60;99.90;;;;;;6258089;22;20274;-81
2023/01/11 17:45:39;;;;;;;7.33;7.13;;;8.60;99.90;;;;;;6258445;22;20221;-81
2023/01/11 17:48:13;;;;;;;7.40;7.20;;;8.60;99.90;;;;;;6259432;22;20206;-80
2023/01/11 17:50:48;;;;;;;7.20;7.00;;;8.70;99.90;;;;;;6258332;22;20219;-80
2023/01/11 17:53:22;;;;;;;7.50;7.30;;;8.70;99.90;;;;;;6258539;22;20205;-82
2023/01/11 17:55:51;;;;;;;7.50;7.30;;;8.70;99.90;;;;;;6258227;22;20193;-79
2023/01/11 17:58:24;;;;;;;7.30;7.10;;;8.70;99.90;;;;;;6256101;22;20189;-79
2023/01/11 18:01:17;;;;;;;7.40;7.20;;;8.70;99.90;;;;;;6256913;22;20195;-79
2023/01/11 18:03:47;;;;;;;7.20;7.00;;;8.70;99.90;;;;;;6256294;22;20208;-80
2023/01/11 18:06:27;;;;;;;7.20;7.00;;;8.70;99.90;;;;;;6256214;22;20226;-83
2023/01/11 18:08:57;;;;;;;7.10;6.90;;;8.70;99.90;;;;;;6257440;22;20269;-80
2023/01/11 18:11:28;;;;;;;7.10;6.90;;;8.70;99.90;;;;;;6257729;22;20194;-81
2023/01/11 18:14:00;;;;;;;7.40;7.20;;;8.60;99.90;;;;;;6257465;22;20214;-81
2023/01/11 18:16:28;;;;;;;7.10;6.90;;;8.60;99.90;;;;;;6260127;22;20276;-81
2023/01/11 18:18:56;;;;;;;7.13;6.93;;;8.60;99.90;;;;;;6263478;22;20194;-81
2023/01/11 18:21:45;;;;;;;7.03;6.83;;;8.60;99.90;;;;;;6262522;22;20237;-80
2023/01/11 18:24:41;;;;;;;7.10;6.90;;;8.60;99.90;;;;;;6260809;22;20206;-80
2023/01/11 18:27:26;;;;;;;7.30;7.10;;;8.60;99.90;;;;;;6262074;22;20641;-80
2023/01/11 18:29:55;;;;;;;7.07;6.87;;;8.60;99.90;;;;;;6259806;22;20190;-80
2023/01/11 18:32:23;;;;;;;6.60;6.40;;;8.60;99.90;;;;;;6259907;22;20285;-79
2023/01/11 18:34:54;;;;;;;6.97;6.77;;;8.60;99.90;;;;;;6258888;22;20246;-80
2023/01/11 18:37:24;;;;;;;6.73;6.53;;;8.60;99.90;;;;;;6258282;22;20194;-80
2023/01/11 18:39:53;;;;;;;6.73;6.53;;;8.60;99.90;;;;;;6258825;22;20205;-80
2023/01/11 18:42:28;;;;;;;7.30;7.10;;;8.60;99.90;;;;;;6258316;22;20218;-80